Terminal Aerodrome Forecast
Issued by NWS

Home | Current Version | Previous Version | Text Only | Print | Product List | Glossary On
Versions: 1 2 3 4 5 6 7 8 9 10 11 12 13 14
000
FTUS43 KMPX 251736
TAFAXN
TAF
KAXN 251736Z 2518/2618 01007KT 6SM BR SCT008 OVC015
     FM252100 36008KT P6SM SCT015 BKN025
     FM260400 36003KT 6SM BR OVC012
     FM260900 01003KT 4SM BR OVC005
     FM261300 01004KT P6SM SCT005 BKN009
     FM261430 01006KT P6SM SCT020=

USA.gov is the U.S. government's official web portal to all federal, state and local government web resources and services.